sensor_id;sensor_type;location;lat;lon;timestamp;pressure;altitude;pressure_sealevel;temperature;humidity
36404;BME280;22437;55.646;37.518;2022-09-17T00:01:43;97043.84;;;11.66;73.06
36404;BME280;22437;55.646;37.518;2022-09-17T00:04:12;97044.22;;;11.65;72.89
36404;BME280;22437;55.646;37.518;2022-09-17T00:06:41;97048.53;;;11.62;72.92
36404;BME280;22437;55.646;37.518;2022-09-17T00:09:10;97046.19;;;11.64;72.68
36404;BME280;22437;55.646;37.518;2022-09-17T00:11:41;97052.78;;;11.67;72.43
36404;BME280;22437;55.646;37.518;2022-09-17T00:14:15;97048.91;;;11.61;72.85
36404;BME280;22437;55.646;37.518;2022-09-17T00:16:46;97053.22;;;11.58;72.86
36404;BME280;22437;55.646;37.518;2022-09-17T00:19:17;97048.91;;;11.61;72.84
36404;BME280;22437;55.646;37.518;2022-09-17T00:21:46;97064.50;;;11.56;72.65
36404;BME280;22437;55.646;37.518;2022-09-17T00:24:16;97065.00;;;11.33;73.07
36404;BME280;22437;55.646;37.518;2022-09-17T00:26:46;97058.72;;;11.40;73.16
36404;BME280;22437;55.646;37.518;2022-09-17T00:29:16;97054.00;;;11.51;72.95
36404;BME280;22437;55.646;37.518;2022-09-17T00:31:45;97066.13;;;11.47;72.40
36404;BME280;22437;55.646;37.518;2022-09-17T00:34:14;97068.50;;;11.27;72.90
36404;BME280;22437;55.646;37.518;2022-09-17T00:36:42;97068.91;;;11.25;73.11
36404;BME280;22437;55.646;37.518;2022-09-17T00:39:12;97067.75;;;11.26;72.82
36404;BME280;22437;55.646;37.518;2022-09-17T00:41:42;97071.22;;;11.30;72.51
36404;BME280;22437;55.646;37.518;2022-09-17T00:44:43;97072.34;;;11.36;72.76
36404;BME280;22437;55.646;37.518;2022-09-17T00:47:25;97066.16;;;11.29;72.42
36404;BME280;22437;55.646;37.518;2022-09-17T00:49:58;97081.34;;;11.30;72.18
36404;BME280;22437;55.646;37.518;2022-09-17T00:52:32;97073.56;;;11.28;72.19
36404;BME280;22437;55.646;37.518;2022-09-17T00:55:06;97081.75;;;11.25;72.54
36404;BME280;22437;55.646;37.518;2022-09-17T00:57:38;97082.56;;;11.18;72.67
36404;BME280;22437;55.646;37.518;2022-09-17T01:00:11;97079.84;;;11.18;72.47
36404;BME280;22437;55.646;37.518;2022-09-17T01:02:41;97086.03;;;11.15;72.40
36404;BME280;22437;55.646;37.518;2022-09-17T01:05:11;97078.28;;;11.13;72.31
36404;BME280;22437;55.646;37.518;2022-09-17T01:08:00;97081.81;;;11.07;72.46
36404;BME280;22437;55.646;37.518;2022-09-17T01:10:49;97079.09;;;11.00;73.03
36404;BME280;22437;55.646;37.518;2022-09-17T01:13:35;97074.41;;;11.04;72.51
36404;BME280;22437;55.646;37.518;2022-09-17T01:16:13;97072.88;;;11.03;72.53
36404;BME280;22437;55.646;37.518;2022-09-17T01:18:56;97077.53;;;10.98;72.32
36404;BME280;22437;55.646;37.518;2022-09-17T01:21:37;97088.44;;;10.95;72.75
36404;BME280;22437;55.646;37.518;2022-09-17T01:27:41;97086.06;;;11.08;72.29
36404;BME280;22437;55.646;37.518;2022-09-17T01:30:29;97079.09;;;11.00;72.08
36404;BME280;22437;55.646;37.518;2022-09-17T01:33:04;97076.75;;;10.94;71.94
36404;BME280;22437;55.646;37.518;2022-09-17T01:35:44;97065.91;;;10.80;71.92
36404;BME280;22437;55.646;37.518;2022-09-17T01:38:24;97079.91;;;10.93;72.17
36404;BME280;22437;55.646;37.518;2022-09-17T01:41:00;97087.25;;;10.85;72.06
36404;BME280;22437;55.646;37.518;2022-09-17T01:43:36;97083.78;;;10.85;72.15
36404;BME280;22437;55.646;37.518;2022-09-17T01:46:14;97088.44;;;10.84;72.02
36404;BME280;22437;55.646;37.518;2022-09-17T01:48:49;97086.50;;;10.81;72.22
36404;BME280;22437;55.646;37.518;2022-09-17T01:51:21;97079.13;;;10.78;72.14
36404;BME280;22437;55.646;37.518;2022-09-17T01:53:54;97095.47;;;10.71;72.21
36404;BME280;22437;55.646;37.518;2022-09-17T01:56:29;97100.13;;;10.74;72.12
36404;BME280;22437;55.646;37.518;2022-09-17T01:59:03;97100.91;;;10.71;71.77
36404;BME280;22437;55.646;37.518;2022-09-17T02:01:37;97103.22;;;10.69;71.96
36404;BME280;22437;55.646;37.518;2022-09-17T02:04:10;97103.59;;;10.56;72.29
36404;BME280;22437;55.646;37.518;2022-09-17T02:06:45;97108.28;;;10.60;72.17
36404;BME280;22437;55.646;37.518;2022-09-17T02:09:17;97108.66;;;10.58;72.05
36404;BME280;22437;55.646;37.518;2022-09-17T02:11:51;97105.94;;;10.62;71.76
36404;BME280;22437;55.646;37.518;2022-09-17T02:14:26;97104.00;;;10.62;71.36
36404;BME280;22437;55.646;37.518;2022-09-17T02:17:02;97115.25;;;10.64;71.64
36404;BME280;22437;55.646;37.518;2022-09-17T02:19:35;97116.44;;;10.60;71.37
36404;BME280;22437;55.646;37.518;2022-09-17T02:22:13;97115.66;;;10.59;71.15
36404;BME280;22437;55.646;37.518;2022-09-17T02:24:45;97114.09;;;10.58;71.43
36404;BME280;22437;55.646;37.518;2022-09-17T02:27:21;97116.84;;;10.51;71.44
36404;BME280;22437;55.646;37.518;2022-09-17T02:29:51;97119.56;;;10.47;71.38
36404;BME280;22437;55.646;37.518;2022-09-17T02:32:21;97109.84;;;10.46;71.47
36404;BME280;22437;55.646;37.518;2022-09-17T02:34:51;97116.44;;;10.45;71.12
36404;BME280;22437;55.646;37.518;2022-09-17T02:37:20;97112.94;;;10.41;71.22
36404;BME280;22437;55.646;37.518;2022-09-17T02:39:48;97113.34;;;10.36;71.46
36404;BME280;22437;55.646;37.518;2022-09-17T02:42:21;97117.22;;;10.38;71.66
36404;BME280;22437;55.646;37.518;2022-09-17T02:44:58;97120.66;;;10.17;72.11
36404;BME280;22437;55.646;37.518;2022-09-17T02:47:57;97130.41;;;10.36;72.24
36404;BME280;22437;55.646;37.518;2022-09-17T02:50:41;97135.47;;;10.38;71.92
36404;BME280;22437;55.646;37.518;2022-09-17T02:53:29;97137.41;;;10.37;71.67
36404;BME280;22437;55.646;37.518;2022-09-17T02:56:05;97139.72;;;10.28;71.87
36404;BME280;22437;55.646;37.518;2022-09-17T02:58:44;97119.13;;;10.16;71.94
36404;BME280;22437;55.646;37.518;2022-09-17T03:01:19;97131.13;;;10.30;71.68
36404;BME280;22437;55.646;37.518;2022-09-17T03:03:53;97138.13;;;10.27;71.80
36404;BME280;22437;55.646;37.518;2022-09-17T03:06:25;97133.47;;;10.21;71.90
36404;BME280;22437;55.646;37.518;2022-09-17T03:08:53;97131.91;;;10.16;71.98
36404;BME280;22437;55.646;37.518;2022-09-17T03:11:23;97136.59;;;10.19;71.72
36404;BME280;22437;55.646;37.518;2022-09-17T03:13:52;97140.47;;;10.22;71.72
36404;BME280;22437;55.646;37.518;2022-09-17T03:16:20;97143.94;;;10.26;71.90
36404;BME280;22437;55.646;37.518;2022-09-17T03:18:49;97143.56;;;10.16;71.91
36404;BME280;22437;55.646;37.518;2022-09-17T03:21:20;97143.56;;;10.24;72.23
36404;BME280;22437;55.646;37.518;2022-09-17T03:23:49;97146.69;;;10.18;71.86
36404;BME280;22437;55.646;37.518;2022-09-17T03:26:18;97152.50;;;10.21;71.83
36404;BME280;22437;55.646;37.518;2022-09-17T03:28:47;97152.13;;;10.18;71.94
36404;BME280;22437;55.646;37.518;2022-09-17T03:31:15;97152.88;;;10.15;71.80
36404;BME280;22437;55.646;37.518;2022-09-17T03:33:44;97155.16;;;9.92;72.35
36404;BME280;22437;55.646;37.518;2022-09-17T03:36:13;97141.16;;;9.93;72.04
36404;BME280;22437;55.646;37.518;2022-09-17T03:38:43;97158.72;;;10.21;71.93
36404;BME280;22437;55.646;37.518;2022-09-17T03:41:12;97136.94;;;10.10;71.80
36404;BME280;22437;55.646;37.518;2022-09-17T03:43:41;97161.44;;;10.25;71.76
36404;BME280;22437;55.646;37.518;2022-09-17T03:46:10;97162.22;;;10.29;71.57
36404;BME280;22437;55.646;37.518;2022-09-17T03:48:38;97165.72;;;10.29;71.62
36404;BME280;22437;55.646;37.518;2022-09-17T03:51:07;97170.00;;;10.27;71.50
36404;BME280;22437;55.646;37.518;2022-09-17T03:53:36;97167.31;;;10.30;71.86
36404;BME280;22437;55.646;37.518;2022-09-17T03:56:06;97168.47;;;10.36;71.44
36404;BME280;22437;55.646;37.518;2022-09-17T03:58:35;97172.34;;;10.35;71.58
36404;BME280;22437;55.646;37.518;2022-09-17T04:01:05;97173.53;;;10.34;71.30
36404;BME280;22437;55.646;37.518;2022-09-17T04:03:34;97181.25;;;10.29;71.29
36404;BME280;22437;55.646;37.518;2022-09-17T04:06:03;97150.19;;;10.26;71.48
36404;BME280;22437;55.646;37.518;2022-09-17T04:08:31;97182.78;;;10.30;71.35
36404;BME280;22437;55.646;37.518;2022-09-17T04:11:00;97182.47;;;10.38;71.27
36404;BME280;22437;55.646;37.518;2022-09-17T04:13:30;97184.44;;;10.45;71.21
36404;BME280;22437;55.646;37.518;2022-09-17T04:15:59;97188.69;;;10.46;70.96
36404;BME280;22437;55.646;37.518;2022-09-17T04:18:28;97185.97;;;10.50;70.93
36404;BME280;22437;55.646;37.518;2022-09-17T04:20:57;97187.13;;;10.52;70.51
36404;BME280;22437;55.646;37.518;2022-09-17T04:23:26;97186.78;;;10.68;70.37
36404;BME280;22437;55.646;37.518;2022-09-17T04:25:55;97191.06;;;10.76;70.03
36404;BME280;22437;55.646;37.518;2022-09-17T04:28:23;97169.28;;;10.55;70.24
36404;BME280;22437;55.646;37.518;2022-09-17T04:30:54;97196.88;;;10.75;70.01
36404;BME280;22437;55.646;37.518;2022-09-17T04:33:24;97196.50;;;10.84;69.84
36404;BME280;22437;55.646;37.518;2022-09-17T04:35:53;97192.22;;;10.90;69.38
36404;BME280;22437;55.646;37.518;2022-09-17T04:38:22;97198.06;;;10.92;69.14
36404;BME280;22437;55.646;37.518;2022-09-17T04:40:51;97192.63;;;10.95;68.53
36404;BME280;22437;55.646;37.518;2022-09-17T04:43:20;97196.88;;;10.96;68.68
36404;BME280;22437;55.646;37.518;2022-09-17T04:45:49;97191.84;;;10.95;68.76
36404;BME280;22437;55.646;37.518;2022-09-17T04:48:19;97196.13;;;11.10;68.38
36404;BME280;22437;55.646;37.518;2022-09-17T04:50:49;97197.66;;;11.11;68.28
36404;BME280;22437;55.646;37.518;2022-09-17T04:53:18;97200.00;;;10.98;68.10
36404;BME280;22437;55.646;37.518;2022-09-17T04:55:47;97211.25;;;11.08;68.00
36404;BME280;22437;55.646;37.518;2022-09-17T04:58:16;97212.81;;;10.94;68.31
36404;BME280;22437;55.646;37.518;2022-09-17T05:00:45;97213.59;;;11.16;68.14
36404;BME280;22437;55.646;37.518;2022-09-17T05:03:14;97215.53;;;10.98;67.95
36404;BME280;22437;55.646;37.518;2022-09-17T05:05:44;97214.78;;;10.97;68.06
36404;BME280;22437;55.646;37.518;2022-09-17T05:08:13;97219.06;;;10.95;68.07
36404;BME280;22437;55.646;37.518;2022-09-17T05:10:42;97224.91;;;11.01;67.91
36404;BME280;22437;55.646;37.518;2022-09-17T05:13:11;97222.19;;;11.01;67.71
36404;BME280;22437;55.646;37.518;2022-09-17T05:15:39;97215.94;;;11.07;67.65
36404;BME280;22437;55.646;37.518;2022-09-17T05:18:08;97200.00;;;11.02;67.51
36404;BME280;22437;55.646;37.518;2022-09-17T05:20:37;97216.31;;;10.98;67.99
36404;BME280;22437;55.646;37.518;2022-09-17T05:23:07;97215.53;;;10.94;68.25
36404;BME280;22437;55.646;37.518;2022-09-17T05:25:36;97221.00;;;11.02;68.31
36404;BME280;22437;55.646;37.518;2022-09-17T05:28:05;97224.50;;;11.13;68.09
36404;BME280;22437;55.646;37.518;2022-09-17T05:30:34;97230.72;;;11.17;67.74
36404;BME280;22437;55.646;37.518;2022-09-17T05:33:05;97226.81;;;11.29;67.99
36404;BME280;22437;55.646;37.518;2022-09-17T05:35:34;97229.53;;;11.25;67.45
36404;BME280;22437;55.646;37.518;2022-09-17T05:38:04;97242.38;;;11.32;67.58
36404;BME280;22437;55.646;37.518;2022-09-17T05:40:35;97234.59;;;11.45;67.61
36404;BME280;22437;55.646;37.518;2022-09-17T05:43:05;97243.16;;;11.32;66.98
36404;BME280;22437;55.646;37.518;2022-09-17T05:45:35;97238.06;;;11.52;66.94
36404;BME280;22437;55.646;37.518;2022-09-17T05:48:06;97243.91;;;11.44;66.87
36404;BME280;22437;55.646;37.518;2022-09-17T05:50:54;97244.69;;;11.48;67.35
36404;BME280;22437;55.646;37.518;2022-09-17T05:53:23;97255.56;;;11.48;67.10
36404;BME280;22437;55.646;37.518;2022-09-17T05:55:56;97251.28;;;11.54;67.43
36404;BME280;22437;55.646;37.518;2022-09-17T05:58:25;97252.84;;;11.62;66.88
36404;BME280;22437;55.646;37.518;2022-09-17T06:00:59;97259.44;;;11.72;66.70
36404;BME280;22437;55.646;37.518;2022-09-17T06:03:28;97255.53;;;11.80;66.23
36404;BME280;22437;55.646;37.518;2022-09-17T06:05:58;97258.63;;;12.00;66.11
36404;BME280;22437;55.646;37.518;2022-09-17T06:08:28;97255.91;;;12.00;65.77
36404;BME280;22437;55.646;37.518;2022-09-17T06:11:02;97263.22;;;12.21;65.63
36404;BME280;22437;55.646;37.518;2022-09-17T06:13:32;97258.84;;;12.38;64.57
36404;BME280;22437;55.646;37.518;2022-09-17T06:16:02;97262.28;;;12.49;63.72
36404;BME280;22437;55.646;37.518;2022-09-17T06:18:31;97254.78;;;12.68;62.81
36404;BME280;22437;55.646;37.518;2022-09-17T06:21:01;97263.91;;;13.03;61.94
36404;BME280;22437;55.646;37.518;2022-09-17T06:23:32;97261.38;;;14.09;59.91
36404;BME280;22437;55.646;37.518;2022-09-17T06:26:05;97261.56;;;15.15;56.55
36404;BME280;22437;55.646;37.518;2022-09-17T06:28:34;97260.91;;;15.78;55.15
36404;BME280;22437;55.646;37.518;2022-09-17T06:31:09;97258.13;;;16.21;54.46
36404;BME280;22437;55.646;37.518;2022-09-17T06:33:39;97252.16;;;16.79;52.03
36404;BME280;22437;55.646;37.518;2022-09-17T06:36:09;97254.59;;;17.76;49.04
36404;BME280;22437;55.646;37.518;2022-09-17T06:38:44;97270.16;;;18.12;47.12
36404;BME280;22437;55.646;37.518;2022-09-17T06:41:15;97254.41;;;18.54;45.92
36404;BME280;22437;55.646;37.518;2022-09-17T06:43:44;97266.09;;;18.58;44.40
36404;BME280;22437;55.646;37.518;2022-09-17T06:46:16;97257.03;;;19.48;43.61
36404;BME280;22437;55.646;37.518;2022-09-17T06:48:45;97252.81;;;18.95;43.64
36404;BME280;22437;55.646;37.518;2022-09-17T06:51:14;97255.56;;;18.83;44.00
36404;BME280;22437;55.646;37.518;2022-09-17T06:53:47;97264.34;;;19.29;43.61
36404;BME280;22437;55.646;37.518;2022-09-17T06:56:18;97255.22;;;19.06;42.61
36404;BME280;22437;55.646;37.518;2022-09-17T06:58:47;97280.25;;;19.12;42.68
36404;BME280;22437;55.646;37.518;2022-09-17T07:01:16;97267.13;;;19.16;42.50
36404;BME280;22437;55.646;37.518;2022-09-17T07:03:45;97279.38;;;18.89;43.70
36404;BME280;22437;55.646;37.518;2022-09-17T07:06:16;97284.09;;;18.21;44.81
36404;BME280;22437;55.646;37.518;2022-09-17T07:08:45;97280.06;;;17.64;44.93
36404;BME280;22437;55.646;37.518;2022-09-17T07:11:15;97294.22;;;18.24;43.51
36404;BME280;22437;55.646;37.518;2022-09-17T07:13:45;97290.38;;;17.92;43.24
36404;BME280;22437;55.646;37.518;2022-09-17T07:16:16;97287.63;;;18.76;42.11
36404;BME280;22437;55.646;37.518;2022-09-17T07:18:46;97286.66;;;19.82;40.10
36404;BME280;22437;55.646;37.518;2022-09-17T07:21:15;97294.38;;;19.87;40.02
36404;BME280;22437;55.646;37.518;2022-09-17T07:23:44;97295.75;;;20.05;40.17
36404;BME280;22437;55.646;37.518;2022-09-17T07:26:14;97289.66;;;19.62;39.69
36404;BME280;22437;55.646;37.518;2022-09-17T07:28:46;97301.75;;;19.90;40.67
36404;BME280;22437;55.646;37.518;2022-09-17T07:31:16;97296.25;;;19.04;41.33
36404;BME280;22437;55.646;37.518;2022-09-17T07:33:49;97298.16;;;19.81;40.41
36404;BME280;22437;55.646;37.518;2022-09-17T07:36:18;97303.19;;;19.95;39.04
36404;BME280;22437;55.646;37.518;2022-09-17T07:38:47;97294.72;;;20.11;38.36
36404;BME280;22437;55.646;37.518;2022-09-17T07:41:17;97309.91;;;19.33;39.74
36404;BME280;22437;55.646;37.518;2022-09-17T07:43:51;97309.50;;;19.83;37.93
36404;BME280;22437;55.646;37.518;2022-09-17T07:46:22;97319.06;;;19.43;38.36
36404;BME280;22437;55.646;37.518;2022-09-17T07:48:51;97316.31;;;19.17;38.78
36404;BME280;22437;55.646;37.518;2022-09-17T07:51:22;97312.97;;;19.48;38.76
36404;BME280;22437;55.646;37.518;2022-09-17T07:53:52;97314.53;;;19.36;38.75
36404;BME280;22437;55.646;37.518;2022-09-17T07:56:22;97318.81;;;19.50;38.72
36404;BME280;22437;55.646;37.518;2022-09-17T07:58:53;97322.75;;;18.59;40.09
36404;BME280;22437;55.646;37.518;2022-09-17T08:01:23;97317.47;;;18.65;39.97
36404;BME280;22437;55.646;37.518;2022-09-17T08:03:54;97318.34;;;18.75;40.46
36404;BME280;22437;55.646;37.518;2022-09-17T08:06:25;97317.03;;;18.67;40.56
36404;BME280;22437;55.646;37.518;2022-09-17T08:08:55;97325.34;;;19.44;39.19
36404;BME280;22437;55.646;37.518;2022-09-17T08:11:26;97307.16;;;19.08;39.77
36404;BME280;22437;55.646;37.518;2022-09-17T08:14:18;97312.53;;;20.54;36.95
36404;BME280;22437;55.646;37.518;2022-09-17T08:16:53;97322.16;;;21.35;34.40
36404;BME280;22437;55.646;37.518;2022-09-17T08:19:22;97306.28;;;21.85;33.08
36404;BME280;22437;55.646;37.518;2022-09-17T08:21:52;97314.00;;;22.45;32.56
36404;BME280;22437;55.646;37.518;2022-09-17T08:24:21;97318.78;;;22.17;31.79
36404;BME280;22437;55.646;37.518;2022-09-17T08:26:50;97308.78;;;22.57;31.99
36404;BME280;22437;55.646;37.518;2022-09-17T08:29:21;97299.16;;;22.85;31.46
36404;BME280;22437;55.646;37.518;2022-09-17T08:31:50;97297.28;;;23.58;29.13
36404;BME280;22437;55.646;37.518;2022-09-17T08:34:20;97298.28;;;23.70;29.49
36404;BME280;22437;55.646;37.518;2022-09-17T08:36:49;97307.69;;;22.45;30.96
36404;BME280;22437;55.646;37.518;2022-09-17T08:39:18;97305.38;;;23.71;29.25
36404;BME280;22437;55.646;37.518;2022-09-17T08:41:56;97311.91;;;23.92;29.89
36404;BME280;22437;55.646;37.518;2022-09-17T08:44:38;97312.56;;;23.54;30.26
36404;BME280;22437;55.646;37.518;2022-09-17T08:47:14;97327.53;;;23.23;29.58
36404;BME280;22437;55.646;37.518;2022-09-17T08:49:49;97327.72;;;22.40;31.26
36404;BME280;22437;55.646;37.518;2022-09-17T08:52:30;97323.03;;;24.31;28.12
36404;BME280;22437;55.646;37.518;2022-09-17T08:55:11;97329.28;;;24.02;27.98
36404;BME280;22437;55.646;37.518;2022-09-17T08:57:50;97325.19;;;24.12;27.51
36404;BME280;22437;55.646;37.518;2022-09-17T09:00:24;97329.69;;;24.10;27.96
36404;BME280;22437;55.646;37.518;2022-09-17T09:02:59;97345.44;;;24.52;27.16
36404;BME280;22437;55.646;37.518;2022-09-17T09:05:43;97337.31;;;22.91;28.27
36404;BME280;22437;55.646;37.518;2022-09-17T09:08:17;97321.59;;;23.06;27.38
36404;BME280;22437;55.646;37.518;2022-09-17T09:10:52;97320.63;;;23.18;27.07
36404;BME280;22437;55.646;37.518;2022-09-17T09:13:24;97318.72;;;24.45;25.68
36404;BME280;22437;55.646;37.518;2022-09-17T09:15:59;97322.25;;;24.31;26.71
36404;BME280;22437;55.646;37.518;2022-09-17T09:18:30;97333.81;;;24.53;25.66
36404;BME280;22437;55.646;37.518;2022-09-17T09:21:17;97313.03;;;25.44;25.12
36404;BME280;22437;55.646;37.518;2022-09-17T09:23:55;97336.94;;;25.35;24.27
36404;BME280;22437;55.646;37.518;2022-09-17T09:26:35;97326.31;;;26.31;23.88
36404;BME280;22437;55.646;37.518;2022-09-17T09:29:14;97334.78;;;26.89;23.05
36404;BME280;22437;55.646;37.518;2022-09-17T09:32:03;97357.13;;;25.66;23.67
36404;BME280;22437;55.646;37.518;2022-09-17T09:34:46;97331.00;;;25.98;23.53
36404;BME280;22437;55.646;37.518;2022-09-17T09:37:20;97347.88;;;24.50;24.98
36404;BME280;22437;55.646;37.518;2022-09-17T09:39:52;97342.44;;;21.90;28.42
36404;BME280;22437;55.646;37.518;2022-09-17T09:42:28;97346.00;;;20.34;29.81
36404;BME280;22437;55.646;37.518;2022-09-17T09:45:00;97341.13;;;22.32;28.86
36404;BME280;22437;55.646;37.518;2022-09-17T09:47:47;97336.69;;;24.74;25.73
36404;BME280;22437;55.646;37.518;2022-09-17T09:50:33;97332.00;;;22.68;28.29
36404;BME280;22437;55.646;37.518;2022-09-17T09:53:32;97330.56;;;24.70;25.81
36404;BME280;22437;55.646;37.518;2022-09-17T09:56:18;97337.38;;;23.91;25.52
36404;BME280;22437;55.646;37.518;2022-09-17T09:58:54;97343.56;;;22.39;26.84
36404;BME280;22437;55.646;37.518;2022-09-17T10:01:27;97340.50;;;23.83;24.44
36404;BME280;22437;55.646;37.518;2022-09-17T10:04:15;97348.03;;;22.55;25.27
36404;BME280;22437;55.646;37.518;2022-09-17T10:06:48;97351.25;;;22.07;26.55
36404;BME280;22437;55.646;37.518;2022-09-17T10:09:20;97362.78;;;22.89;24.90
36404;BME280;22437;55.646;37.518;2022-09-17T10:12:14;97361.47;;;21.29;27.71
36404;BME280;22437;55.646;37.518;2022-09-17T10:14:45;97357.69;;;20.04;29.07
36404;BME280;22437;55.646;37.518;2022-09-17T10:17:20;97371.78;;;20.19;30.47
36404;BME280;22437;55.646;37.518;2022-09-17T10:20:15;97352.41;;;21.29;29.19
36404;BME280;22437;55.646;37.518;2022-09-17T10:22:49;97360.38;;;22.26;26.95
36404;BME280;22437;55.646;37.518;2022-09-17T10:25:32;97355.47;;;20.68;29.10
36404;BME280;22437;55.646;37.518;2022-09-17T10:28:04;97362.97;;;21.53;27.83
36404;BME280;22437;55.646;37.518;2022-09-17T10:31:03;97359.25;;;20.84;29.03
36404;BME280;22437;55.646;37.518;2022-09-17T10:33:40;97371.34;;;19.47;31.41
36404;BME280;22437;55.646;37.518;2022-09-17T10:39:36;97378.06;;;18.36;33.77
36404;BME280;22437;55.646;37.518;2022-09-17T10:42:13;97380.78;;;17.41;35.55
36404;BME280;22437;55.646;37.518;2022-09-17T10:44:52;97379.69;;;17.55;35.76
36404;BME280;22437;55.646;37.518;2022-09-17T10:47:28;97383.00;;;17.30;36.23
36404;BME280;22437;55.646;37.518;2022-09-17T10:49:59;97402.25;;;16.93;40.59
36404;BME280;22437;55.646;37.518;2022-09-17T10:52:34;97406.34;;;16.41;42.38
36404;BME280;22437;55.646;37.518;2022-09-17T10:55:21;97395.88;;;16.76;43.03
36404;BME280;22437;55.646;37.518;2022-09-17T10:58:08;97390.03;;;16.74;43.85
36404;BME280;22437;55.646;37.518;2022-09-17T11:01:05;97389.06;;;20.45;38.36
36404;BME280;22437;55.646;37.518;2022-09-17T11:03:55;97387.94;;;20.42;36.22
36404;BME280;22437;55.646;37.518;2022-09-17T11:10:12;97396.22;;;17.88;40.13
36404;BME280;22437;55.646;37.518;2022-09-17T11:13:06;97397.72;;;17.39;41.43
36404;BME280;22437;55.646;37.518;2022-09-17T11:16:01;97393.59;;;17.48;40.84
36404;BME280;22437;55.646;37.518;2022-09-17T11:18:43;97391.50;;;18.63;39.02
36404;BME280;22437;55.646;37.518;2022-09-17T11:21:41;97376.75;;;19.25;37.03
36404;BME280;22437;55.646;37.518;2022-09-17T11:27:37;97378.81;;;22.76;30.92
36404;BME280;22437;55.646;37.518;2022-09-17T11:30:23;97379.38;;;24.56;28.54
36404;BME280;22437;55.646;37.518;2022-09-17T11:33:34;97387.53;;;24.89;26.37
36404;BME280;22437;55.646;37.518;2022-09-17T11:36:12;97388.97;;;25.14;26.13
36404;BME280;22437;55.646;37.518;2022-09-17T11:38:50;97405.50;;;25.33;24.08
36404;BME280;22437;55.646;37.518;2022-09-17T11:41:30;97398.34;;;25.26;24.75
36404;BME280;22437;55.646;37.518;2022-09-17T11:44:40;97382.22;;;22.52;28.38
36404;BME280;22437;55.646;37.518;2022-09-17T11:48:02;97388.84;;;21.05;30.58
36404;BME280;22437;55.646;37.518;2022-09-17T11:51:21;97390.81;;;20.39;31.57
36404;BME280;22437;55.646;37.518;2022-09-17T11:54:38;97395.84;;;19.19;32.32
36404;BME280;22437;55.646;37.518;2022-09-17T11:57:51;97408.06;;;18.17;34.04
36404;BME280;22437;55.646;37.518;2022-09-17T12:00:50;97393.47;;;18.33;34.40
36404;BME280;22437;55.646;37.518;2022-09-17T12:03:55;97424.38;;;18.25;34.22
36404;BME280;22437;55.646;37.518;2022-09-17T12:06:53;97397.75;;;18.05;35.53
36404;BME280;22437;55.646;37.518;2022-09-17T12:09:45;97405.41;;;17.97;35.74
36404;BME280;22437;55.646;37.518;2022-09-17T12:12:41;97403.06;;;17.96;35.49
36404;BME280;22437;55.646;37.518;2022-09-17T12:15:27;97403.00;;;17.99;36.04
36404;BME280;22437;55.646;37.518;2022-09-17T12:18:19;97413.03;;;18.23;35.37
36404;BME280;22437;55.646;37.518;2022-09-17T12:21:12;97398.03;;;17.94;36.27
36404;BME280;22437;55.646;37.518;2022-09-17T12:23:53;97411.31;;;17.63;36.62
36404;BME280;22437;55.646;37.518;2022-09-17T12:27:10;97419.38;;;17.70;36.92
36404;BME280;22437;55.646;37.518;2022-09-17T12:30:10;97416.75;;;17.99;36.01
36404;BME280;22437;55.646;37.518;2022-09-17T12:33:18;97414.34;;;18.18;35.76
36404;BME280;22437;55.646;37.518;2022-09-17T12:39:44;97406.09;;;17.85;37.16
36404;BME280;22437;55.646;37.518;2022-09-17T12:43:06;97413.06;;;18.06;36.57
36404;BME280;22437;55.646;37.518;2022-09-17T12:46:10;97417.44;;;18.04;37.25
36404;BME280;22437;55.646;37.518;2022-09-17T12:49:08;97423.63;;;17.91;37.06
36404;BME280;22437;55.646;37.518;2022-09-17T13:02:14;97443.56;;;18.28;37.53
36404;BME280;22437;55.646;37.518;2022-09-17T13:11:32;97436.81;;;19.85;35.68
36404;BME280;22437;55.646;37.518;2022-09-17T13:14:20;97441.34;;;18.98;36.22
36404;BME280;22437;55.646;37.518;2022-09-17T13:23:59;97426.09;;;18.64;36.84
36404;BME280;22437;55.646;37.518;2022-09-17T13:26:47;97423.88;;;18.59;36.23
36404;BME280;22437;55.646;37.518;2022-09-17T13:30:00;97421.19;;;18.43;36.53
36404;BME280;22437;55.646;37.518;2022-09-17T13:32:51;97426.66;;;17.97;37.73
36404;BME280;22437;55.646;37.518;2022-09-17T13:38:58;97436.91;;;17.44;38.67
36404;BME280;22437;55.646;37.518;2022-09-17T13:41:46;97444.84;;;17.21;39.36
36404;BME280;22437;55.646;37.518;2022-09-17T13:44:27;97431.59;;;17.16;39.65
36404;BME280;22437;55.646;37.518;2022-09-17T13:47:11;97445.13;;;17.07;39.94
36404;BME280;22437;55.646;37.518;2022-09-17T13:49:53;97437.09;;;17.16;39.87
36404;BME280;22437;55.646;37.518;2022-09-17T13:52:38;97421.41;;;17.33;40.13
36404;BME280;22437;55.646;37.518;2022-09-17T13:55:35;97424.50;;;17.35;40.03
36404;BME280;22437;55.646;37.518;2022-09-17T13:58:12;97431.28;;;17.31;40.30
36404;BME280;22437;55.646;37.518;2022-09-17T14:01:17;97431.41;;;17.44;40.44
36404;BME280;22437;55.646;37.518;2022-09-17T14:04:47;97431.88;;;17.38;40.41
36404;BME280;22437;55.646;37.518;2022-09-17T14:07:45;97425.41;;;17.12;40.79
36404;BME280;22437;55.646;37.518;2022-09-17T14:17:05;97431.03;;;17.05;41.26
36404;BME280;22437;55.646;37.518;2022-09-17T14:20:00;97435.50;;;16.99;41.63
36404;BME280;22437;55.646;37.518;2022-09-17T14:22:56;97441.53;;;16.90;42.04
36404;BME280;22437;55.646;37.518;2022-09-17T14:26:01;97431.81;;;16.86;41.75
36404;BME280;22437;55.646;37.518;2022-09-17T14:28:58;97423.59;;;16.86;42.07
36404;BME280;22437;55.646;37.518;2022-09-17T14:32:26;97440.28;;;16.95;41.16
36404;BME280;22437;55.646;37.518;2022-09-17T14:35:16;97435.50;;;16.75;42.11